sensor_id;sensor_type;location;lat;lon;timestamp;P1;P2;P0
70436;PMS5003;57877;39.750;-104.894;2023-05-10T00:00:07;0;0;
70436;PMS5003;57877;39.750;-104.894;2023-05-10T00:02:32;0;0;
70436;PMS5003;57877;39.750;-104.894;2023-05-10T00:04:58;1;1;
70436;PMS5003;57877;39.750;-104.894;2023-05-10T00:07:24;2;2;
70436;PMS5003;57877;39.750;-104.894;2023-05-10T00:09:50;0;0;
70436;PMS5003;57877;39.750;-104.894;2023-05-10T00:12:16;3;2;
70436;PMS5003;57877;39.750;-104.894;2023-05-10T00:14:42;1;1;
70436;PMS5003;57877;39.750;-104.894;2023-05-10T00:17:08;2;2;
70436;PMS5003;57877;39.750;-104.894;2023-05-10T00:19:34;0;0;
70436;PMS5003;57877;39.750;-104.894;2023-05-10T00:22:00;3;2;
70436;PMS5003;57877;39.750;-104.894;2023-05-10T00:24:25;1;1;
70436;PMS5003;57877;39.750;-104.894;2023-05-10T00:26:52;2;2;
70436;PMS5003;57877;39.750;-104.894;2023-05-10T00:29:17;1;1;
70436;PMS5003;57877;39.750;-104.894;2023-05-10T00:31:43;3;2;
70436;PMS5003;57877;39.750;-104.894;2023-05-10T00:34:09;3;3;
70436;PMS5003;57877;39.750;-104.894;2023-05-10T00:36:35;1;1;
70436;PMS5003;57877;39.750;-104.894;2023-05-10T00:39:01;1;1;
70436;PMS5003;57877;39.750;-104.894;2023-05-10T00:41:27;2;2;
70436;PMS5003;57877;39.750;-104.894;2023-05-10T00:43:53;1;0;
70436;PMS5003;57877;39.750;-104.894;2023-05-10T00:46:19;1;1;
70436;PMS5003;57877;39.750;-104.894;2023-05-10T00:48:45;2;2;
70436;PMS5003;57877;39.750;-104.894;2023-05-10T00:51:11;2;1;
70436;PMS5003;57877;39.750;-104.894;2023-05-10T00:53:37;1;1;
70436;PMS5003;57877;39.750;-104.894;2023-05-10T00:56:03;2;2;
70436;PMS5003;57877;39.750;-104.894;2023-05-10T00:58:29;2;1;
70436;PMS5003;57877;39.750;-104.894;2023-05-10T01:00:55;4;3;
70436;PMS5003;57877;39.750;-104.894;2023-05-10T01:03:21;2;2;
70436;PMS5003;57877;39.750;-104.894;2023-05-10T01:05:47;3;3;
70436;PMS5003;57877;39.750;-104.894;2023-05-10T01:08:13;2;2;
70436;PMS5003;57877;39.750;-104.894;2023-05-10T01:10:39;3;3;
70436;PMS5003;57877;39.750;-104.894;2023-05-10T01:13:05;1;1;
70436;PMS5003;57877;39.750;-104.894;2023-05-10T01:15:31;2;2;
70436;PMS5003;57877;39.750;-104.894;2023-05-10T01:17:57;2;2;
70436;PMS5003;57877;39.750;-104.894;2023-05-10T01:20:23;1;1;
70436;PMS5003;57877;39.750;-104.894;2023-05-10T01:25:22;4;2;
70436;PMS5003;57877;39.750;-104.894;2023-05-10T01:27:47;3;0;
70436;PMS5003;57877;39.750;-104.894;2023-05-10T01:32:35;2;2;
70436;PMS5003;57877;39.750;-104.894;2023-05-10T01:35:00;3;2;
70436;PMS5003;57877;39.750;-104.894;2023-05-10T01:37:28;2;2;
70436;PMS5003;57877;39.750;-104.894;2023-05-10T01:39:57;3;3;
70436;PMS5003;57877;39.750;-104.894;2023-05-10T01:42:17;2;1;
70436;PMS5003;57877;39.750;-104.894;2023-05-10T01:44:45;2;2;
70436;PMS5003;57877;39.750;-104.894;2023-05-10T01:47:09;3;3;
70436;PMS5003;57877;39.750;-104.894;2023-05-10T01:49:37;3;3;
70436;PMS5003;57877;39.750;-104.894;2023-05-10T01:52:07;2;2;
70436;PMS5003;57877;39.750;-104.894;2023-05-10T01:54:26;2;1;
70436;PMS5003;57877;39.750;-104.894;2023-05-10T01:56:55;3;3;
70436;PMS5003;57877;39.750;-104.894;2023-05-10T01:59:19;2;2;
70436;PMS5003;57877;39.750;-104.894;2023-05-10T02:01:45;2;2;
70436;PMS5003;57877;39.750;-104.894;2023-05-10T02:04:10;4;3;
70436;PMS5003;57877;39.750;-104.894;2023-05-10T02:06:36;3;3;
70436;PMS5003;57877;39.750;-104.894;2023-05-10T02:09:02;4;2;
70436;PMS5003;57877;39.750;-104.894;2023-05-10T02:11:28;2;2;
70436;PMS5003;57877;39.750;-104.894;2023-05-10T02:13:54;1;1;
70436;PMS5003;57877;39.750;-104.894;2023-05-10T02:16:20;4;4;
70436;PMS5003;57877;39.750;-104.894;2023-05-10T02:18:46;2;1;
70436;PMS5003;57877;39.750;-104.894;2023-05-10T02:21:12;3;3;
70436;PMS5003;57877;39.750;-104.894;2023-05-10T02:23:38;2;1;
70436;PMS5003;57877;39.750;-104.894;2023-05-10T02:26:04;3;2;
70436;PMS5003;57877;39.750;-104.894;2023-05-10T02:28:30;3;3;
70436;PMS5003;57877;39.750;-104.894;2023-05-10T02:30:56;3;3;
70436;PMS5003;57877;39.750;-104.894;2023-05-10T02:33:22;3;3;
70436;PMS5003;57877;39.750;-104.894;2023-05-10T02:35:48;3;3;
70436;PMS5003;57877;39.750;-104.894;2023-05-10T02:38:14;3;3;
70436;PMS5003;57877;39.750;-104.894;2023-05-10T02:40:40;2;2;
70436;PMS5003;57877;39.750;-104.894;2023-05-10T02:43:06;3;2;
70436;PMS5003;57877;39.750;-104.894;2023-05-10T02:45:32;2;2;
70436;PMS5003;57877;39.750;-104.894;2023-05-10T02:47:58;2;2;
70436;PMS5003;57877;39.750;-104.894;2023-05-10T02:50:23;2;2;
70436;PMS5003;57877;39.750;-104.894;2023-05-10T02:52:49;4;4;
70436;PMS5003;57877;39.750;-104.894;2023-05-10T02:55:15;4;4;
70436;PMS5003;57877;39.750;-104.894;2023-05-10T02:57:41;4;3;
70436;PMS5003;57877;39.750;-104.894;2023-05-10T03:00:05;4;4;
70436;PMS5003;57877;39.750;-104.894;2023-05-10T03:02:30;2;2;
70436;PMS5003;57877;39.750;-104.894;2023-05-10T03:04:56;4;4;
70436;PMS5003;57877;39.750;-104.894;2023-05-10T03:07:22;4;4;
70436;PMS5003;57877;39.750;-104.894;2023-05-10T03:09:48;5;4;
70436;PMS5003;57877;39.750;-104.894;2023-05-10T03:12:15;3;3;
70436;PMS5003;57877;39.750;-104.894;2023-05-10T03:14:47;5;5;
70436;PMS5003;57877;39.750;-104.894;2023-05-10T03:17:05;4;4;
70436;PMS5003;57877;39.750;-104.894;2023-05-10T03:19:32;4;4;
70436;PMS5003;57877;39.750;-104.894;2023-05-10T03:21:57;6;5;
70436;PMS5003;57877;39.750;-104.894;2023-05-10T03:24:22;3;3;
70436;PMS5003;57877;39.750;-104.894;2023-05-10T03:26:47;4;3;
70436;PMS5003;57877;39.750;-104.894;2023-05-10T03:29:13;2;2;
70436;PMS5003;57877;39.750;-104.894;2023-05-10T03:31:38;4;4;
70436;PMS5003;57877;39.750;-104.894;2023-05-10T03:34:03;4;4;
70436;PMS5003;57877;39.750;-104.894;2023-05-10T03:36:29;4;3;
70436;PMS5003;57877;39.750;-104.894;2023-05-10T03:38:55;6;6;
70436;PMS5003;57877;39.750;-104.894;2023-05-10T03:41:21;4;4;
70436;PMS5003;57877;39.750;-104.894;2023-05-10T03:43:47;4;4;
70436;PMS5003;57877;39.750;-104.894;2023-05-10T03:46:12;4;4;
70436;PMS5003;57877;39.750;-104.894;2023-05-10T03:48:37;3;3;
70436;PMS5003;57877;39.750;-104.894;2023-05-10T03:51:03;6;6;
70436;PMS5003;57877;39.750;-104.894;2023-05-10T03:53:29;5;5;
70436;PMS5003;57877;39.750;-104.894;2023-05-10T03:55:55;4;4;
70436;PMS5003;57877;39.750;-104.894;2023-05-10T03:58:21;4;4;
70436;PMS5003;57877;39.750;-104.894;2023-05-10T04:00:47;4;4;
70436;PMS5003;57877;39.750;-104.894;2023-05-10T04:03:13;5;5;
70436;PMS5003;57877;39.750;-104.894;2023-05-10T04:05:39;6;5;
70436;PMS5003;57877;39.750;-104.894;2023-05-10T04:08:05;7;7;
70436;PMS5003;57877;39.750;-104.894;2023-05-10T04:10:31;5;4;
70436;PMS5003;57877;39.750;-104.894;2023-05-10T04:12:57;5;5;
70436;PMS5003;57877;39.750;-104.894;2023-05-10T04:15:23;6;5;
70436;PMS5003;57877;39.750;-104.894;2023-05-10T04:17:49;7;6;
70436;PMS5003;57877;39.750;-104.894;2023-05-10T04:20:15;4;4;
70436;PMS5003;57877;39.750;-104.894;2023-05-10T04:22:41;6;6;
70436;PMS5003;57877;39.750;-104.894;2023-05-10T04:25:07;6;6;
70436;PMS5003;57877;39.750;-104.894;2023-05-10T04:27:33;5;4;
70436;PMS5003;57877;39.750;-104.894;2023-05-10T04:29:59;6;6;
70436;PMS5003;57877;39.750;-104.894;2023-05-10T04:32:25;8;8;
70436;PMS5003;57877;39.750;-104.894;2023-05-10T04:34:50;8;8;
70436;PMS5003;57877;39.750;-104.894;2023-05-10T04:37:16;5;5;
70436;PMS5003;57877;39.750;-104.894;2023-05-10T04:39:43;6;6;
70436;PMS5003;57877;39.750;-104.894;2023-05-10T04:42:08;6;6;
70436;PMS5003;57877;39.750;-104.894;2023-05-10T04:44:34;7;7;
70436;PMS5003;57877;39.750;-104.894;2023-05-10T04:47:00;6;6;
70436;PMS5003;57877;39.750;-104.894;2023-05-10T04:49:26;7;6;
70436;PMS5003;57877;39.750;-104.894;2023-05-10T04:51:52;5;5;
70436;PMS5003;57877;39.750;-104.894;2023-05-10T04:54:18;5;4;
70436;PMS5003;57877;39.750;-104.894;2023-05-10T04:56:44;6;5;
70436;PMS5003;57877;39.750;-104.894;2023-05-10T04:59:10;5;5;
70436;PMS5003;57877;39.750;-104.894;2023-05-10T05:01:36;6;6;
70436;PMS5003;57877;39.750;-104.894;2023-05-10T05:04:02;5;5;
70436;PMS5003;57877;39.750;-104.894;2023-05-10T05:06:28;7;7;
70436;PMS5003;57877;39.750;-104.894;2023-05-10T05:08:54;7;7;
70436;PMS5003;57877;39.750;-104.894;2023-05-10T05:11:20;8;7;
70436;PMS5003;57877;39.750;-104.894;2023-05-10T05:13:46;6;6;
70436;PMS5003;57877;39.750;-104.894;2023-05-10T05:16:12;6;6;
70436;PMS5003;57877;39.750;-104.894;2023-05-10T05:18:38;7;6;
70436;PMS5003;57877;39.750;-104.894;2023-05-10T05:23:30;7;6;
70436;PMS5003;57877;39.750;-104.894;2023-05-10T05:25:56;7;6;
70436;PMS5003;57877;39.750;-104.894;2023-05-10T05:28:22;6;6;
70436;PMS5003;57877;39.750;-104.894;2023-05-10T05:30:48;5;5;
70436;PMS5003;57877;39.750;-104.894;2023-05-10T05:33:14;6;6;
70436;PMS5003;57877;39.750;-104.894;2023-05-10T05:35:40;5;5;
70436;PMS5003;57877;39.750;-104.894;2023-05-10T05:38:06;5;5;
70436;PMS5003;57877;39.750;-104.894;2023-05-10T05:40:32;6;6;
70436;PMS5003;57877;39.750;-104.894;2023-05-10T05:42:58;5;5;
70436;PMS5003;57877;39.750;-104.894;2023-05-10T05:45:23;5;5;
70436;PMS5003;57877;39.750;-104.894;2023-05-10T05:47:49;4;4;
70436;PMS5003;57877;39.750;-104.894;2023-05-10T05:50:15;6;6;
70436;PMS5003;57877;39.750;-104.894;2023-05-10T05:52:41;6;6;
70436;PMS5003;57877;39.750;-104.894;2023-05-10T05:55:07;6;6;
70436;PMS5003;57877;39.750;-104.894;2023-05-10T05:57:33;4;4;
70436;PMS5003;57877;39.750;-104.894;2023-05-10T05:59:59;7;6;
70436;PMS5003;57877;39.750;-104.894;2023-05-10T06:02:25;4;4;
70436;PMS5003;57877;39.750;-104.894;2023-05-10T06:04:51;5;5;
70436;PMS5003;57877;39.750;-104.894;2023-05-10T06:07:17;3;3;
70436;PMS5003;57877;39.750;-104.894;2023-05-10T06:09:43;4;4;
70436;PMS5003;57877;39.750;-104.894;2023-05-10T06:12:09;5;4;
70436;PMS5003;57877;39.750;-104.894;2023-05-10T06:14:35;6;5;
70436;PMS5003;57877;39.750;-104.894;2023-05-10T06:17:01;4;4;
70436;PMS5003;57877;39.750;-104.894;2023-05-10T06:19:27;5;5;
70436;PMS5003;57877;39.750;-104.894;2023-05-10T06:21:53;4;4;
70436;PMS5003;57877;39.750;-104.894;2023-05-10T06:24:19;4;4;
70436;PMS5003;57877;39.750;-104.894;2023-05-10T06:26:45;5;5;
70436;PMS5003;57877;39.750;-104.894;2023-05-10T06:29:11;4;4;
70436;PMS5003;57877;39.750;-104.894;2023-05-10T06:31:37;3;3;
70436;PMS5003;57877;39.750;-104.894;2023-05-10T06:34:03;5;4;
70436;PMS5003;57877;39.750;-104.894;2023-05-10T06:36:29;6;6;
70436;PMS5003;57877;39.750;-104.894;2023-05-10T06:38:55;7;6;
70436;PMS5003;57877;39.750;-104.894;2023-05-10T06:41:21;5;5;
70436;PMS5003;57877;39.750;-104.894;2023-05-10T06:43:47;4;4;
70436;PMS5003;57877;39.750;-104.894;2023-05-10T06:46:13;4;3;
70436;PMS5003;57877;39.750;-104.894;2023-05-10T06:48:39;7;7;
70436;PMS5003;57877;39.750;-104.894;2023-05-10T06:51:05;6;6;
70436;PMS5003;57877;39.750;-104.894;2023-05-10T06:53:31;5;5;
70436;PMS5003;57877;39.750;-104.894;2023-05-10T06:55:57;6;6;
70436;PMS5003;57877;39.750;-104.894;2023-05-10T06:58:23;6;6;
70436;PMS5003;57877;39.750;-104.894;2023-05-10T07:00:49;8;8;
70436;PMS5003;57877;39.750;-104.894;2023-05-10T07:03:15;6;5;
70436;PMS5003;57877;39.750;-104.894;2023-05-10T07:05:41;8;8;
70436;PMS5003;57877;39.750;-104.894;2023-05-10T07:08:07;7;6;
70436;PMS5003;57877;39.750;-104.894;2023-05-10T07:10:33;8;7;
70436;PMS5003;57877;39.750;-104.894;2023-05-10T07:12:59;7;7;
70436;PMS5003;57877;39.750;-104.894;2023-05-10T07:15:25;8;8;
70436;PMS5003;57877;39.750;-104.894;2023-05-10T07:17:51;7;6;
70436;PMS5003;57877;39.750;-104.894;2023-05-10T07:20:17;10;9;
70436;PMS5003;57877;39.750;-104.894;2023-05-10T07:22:42;9;8;
70436;PMS5003;57877;39.750;-104.894;2023-05-10T07:25:07;7;7;
70436;PMS5003;57877;39.750;-104.894;2023-05-10T07:27:33;7;6;
70436;PMS5003;57877;39.750;-104.894;2023-05-10T07:29:58;9;9;
70436;PMS5003;57877;39.750;-104.894;2023-05-10T07:32:23;8;8;
70436;PMS5003;57877;39.750;-104.894;2023-05-10T07:34:49;7;7;
70436;PMS5003;57877;39.750;-104.894;2023-05-10T07:37:13;6;6;
70436;PMS5003;57877;39.750;-104.894;2023-05-10T07:39:38;3;3;
70436;PMS5003;57877;39.750;-104.894;2023-05-10T07:42:03;4;4;
70436;PMS5003;57877;39.750;-104.894;2023-05-10T07:44:28;3;3;
70436;PMS5003;57877;39.750;-104.894;2023-05-10T07:46:53;5;4;
70436;PMS5003;57877;39.750;-104.894;2023-05-10T07:49:19;5;5;
70436;PMS5003;57877;39.750;-104.894;2023-05-10T07:51:44;5;5;
70436;PMS5003;57877;39.750;-104.894;2023-05-10T07:54:08;5;5;
70436;PMS5003;57877;39.750;-104.894;2023-05-10T07:56:34;3;3;
70436;PMS5003;57877;39.750;-104.894;2023-05-10T07:58:59;3;3;
70436;PMS5003;57877;39.750;-104.894;2023-05-10T08:01:26;4;3;
70436;PMS5003;57877;39.750;-104.894;2023-05-10T08:03:51;5;5;
70436;PMS5003;57877;39.750;-104.894;2023-05-10T08:06:16;4;4;
70436;PMS5003;57877;39.750;-104.894;2023-05-10T08:08:41;3;3;
70436;PMS5003;57877;39.750;-104.894;2023-05-10T08:11:06;7;6;
70436;PMS5003;57877;39.750;-104.894;2023-05-10T08:13:31;5;5;
70436;PMS5003;57877;39.750;-104.894;2023-05-10T08:15:56;4;3;
70436;PMS5003;57877;39.750;-104.894;2023-05-10T08:18:21;3;3;
70436;PMS5003;57877;39.750;-104.894;2023-05-10T08:20:47;3;3;
70436;PMS5003;57877;39.750;-104.894;2023-05-10T08:23:13;5;5;
70436;PMS5003;57877;39.750;-104.894;2023-05-10T08:25:39;3;3;
70436;PMS5003;57877;39.750;-104.894;2023-05-10T08:28:04;3;3;
70436;PMS5003;57877;39.750;-104.894;2023-05-10T08:30:29;5;5;
70436;PMS5003;57877;39.750;-104.894;2023-05-10T08:32:54;7;6;
70436;PMS5003;57877;39.750;-104.894;2023-05-10T08:35:19;7;6;
70436;PMS5003;57877;39.750;-104.894;2023-05-10T08:37:44;5;5;
70436;PMS5003;57877;39.750;-104.894;2023-05-10T08:40:09;4;4;
70436;PMS5003;57877;39.750;-104.894;2023-05-10T08:42:34;5;5;
70436;PMS5003;57877;39.750;-104.894;2023-05-10T08:44:59;4;4;
70436;PMS5003;57877;39.750;-104.894;2023-05-10T08:47:24;4;4;
70436;PMS5003;57877;39.750;-104.894;2023-05-10T08:49:49;4;4;
70436;PMS5003;57877;39.750;-104.894;2023-05-10T08:52:15;4;4;
70436;PMS5003;57877;39.750;-104.894;2023-05-10T08:54:40;5;5;
70436;PMS5003;57877;39.750;-104.894;2023-05-10T08:57:05;6;6;
70436;PMS5003;57877;39.750;-104.894;2023-05-10T08:59:30;5;4;
70436;PMS5003;57877;39.750;-104.894;2023-05-10T09:01:56;5;5;
70436;PMS5003;57877;39.750;-104.894;2023-05-10T09:04:21;4;4;
70436;PMS5003;57877;39.750;-104.894;2023-05-10T09:06:46;8;8;
70436;PMS5003;57877;39.750;-104.894;2023-05-10T09:09:12;8;7;
70436;PMS5003;57877;39.750;-104.894;2023-05-10T09:11:37;6;6;
70436;PMS5003;57877;39.750;-104.894;2023-05-10T09:14:03;8;8;
70436;PMS5003;57877;39.750;-104.894;2023-05-10T09:16:29;6;6;
70436;PMS5003;57877;39.750;-104.894;2023-05-10T09:18:56;7;7;
70436;PMS5003;57877;39.750;-104.894;2023-05-10T09:23:46;7;6;
70436;PMS5003;57877;39.750;-104.894;2023-05-10T09:26:11;5;5;
70436;PMS5003;57877;39.750;-104.894;2023-05-10T09:28:49;8;8;
70436;PMS5003;57877;39.750;-104.894;2023-05-10T09:31:01;9;7;
70436;PMS5003;57877;39.750;-104.894;2023-05-10T09:33:27;9;7;
70436;PMS5003;57877;39.750;-104.894;2023-05-10T09:35:52;8;7;
70436;PMS5003;57877;39.750;-104.894;2023-05-10T09:38:17;7;7;
70436;PMS5003;57877;39.750;-104.894;2023-05-10T09:40:42;9;9;
70436;PMS5003;57877;39.750;-104.894;2023-05-10T09:43:08;10;10;
70436;PMS5003;57877;39.750;-104.894;2023-05-10T09:45:33;7;6;
70436;PMS5003;57877;39.750;-104.894;2023-05-10T09:47:58;9;9;
70436;PMS5003;57877;39.750;-104.894;2023-05-10T09:50:24;8;8;
70436;PMS5003;57877;39.750;-104.894;2023-05-10T09:52:50;7;7;
70436;PMS5003;57877;39.750;-104.894;2023-05-10T09:55:14;7;6;
70436;PMS5003;57877;39.750;-104.894;2023-05-10T09:57:39;7;7;
70436;PMS5003;57877;39.750;-104.894;2023-05-10T10:00:04;10;9;
70436;PMS5003;57877;39.750;-104.894;2023-05-10T10:02:30;8;8;
70436;PMS5003;57877;39.750;-104.894;2023-05-10T10:04:56;7;6;
70436;PMS5003;57877;39.750;-104.894;2023-05-10T10:07:23;8;6;
70436;PMS5003;57877;39.750;-104.894;2023-05-10T10:09:47;7;7;
70436;PMS5003;57877;39.750;-104.894;2023-05-10T10:12:13;6;5;
70436;PMS5003;57877;39.750;-104.894;2023-05-10T10:14:38;8;8;
70436;PMS5003;57877;39.750;-104.894;2023-05-10T10:17:03;7;7;
70436;PMS5003;57877;39.750;-104.894;2023-05-10T10:19:28;7;7;
70436;PMS5003;57877;39.750;-104.894;2023-05-10T10:21:53;9;9;
70436;PMS5003;57877;39.750;-104.894;2023-05-10T10:24:19;9;7;
70436;PMS5003;57877;39.750;-104.894;2023-05-10T10:26:44;6;6;
70436;PMS5003;57877;39.750;-104.894;2023-05-10T10:29:14;9;7;
70436;PMS5003;57877;39.750;-104.894;2023-05-10T10:31:39;10;10;
70436;PMS5003;57877;39.750;-104.894;2023-05-10T10:34:03;8;8;
70436;PMS5003;57877;39.750;-104.894;2023-05-10T10:36:25;7;7;
70436;PMS5003;57877;39.750;-104.894;2023-05-10T10:43:41;7;6;
70436;PMS5003;57877;39.750;-104.894;2023-05-10T10:48:31;9;7;
70436;PMS5003;57877;39.750;-104.894;2023-05-10T10:50:57;7;7;
70436;PMS5003;57877;39.750;-104.894;2023-05-10T10:53:25;9;8;
70436;PMS5003;57877;39.750;-104.894;2023-05-10T10:55:49;12;10;
70436;PMS5003;57877;39.750;-104.894;2023-05-10T11:00:41;10;10;
70436;PMS5003;57877;39.750;-104.894;2023-05-10T11:03:08;7;7;
70436;PMS5003;57877;39.750;-104.894;2023-05-10T11:05:35;7;6;
70436;PMS5003;57877;39.750;-104.894;2023-05-10T11:08:00;9;9;
70436;PMS5003;57877;39.750;-104.894;2023-05-10T11:10:26;7;7;
70436;PMS5003;57877;39.750;-104.894;2023-05-10T11:12:52;6;6;
70436;PMS5003;57877;39.750;-104.894;2023-05-10T11:15:17;7;7;
70436;PMS5003;57877;39.750;-104.894;2023-05-10T11:17:43;7;7;
70436;PMS5003;57877;39.750;-104.894;2023-05-10T11:20:08;8;8;
70436;PMS5003;57877;39.750;-104.894;2023-05-10T11:25:00;6;6;
70436;PMS5003;57877;39.750;-104.894;2023-05-10T11:27:26;8;8;
70436;PMS5003;57877;39.750;-104.894;2023-05-10T11:29:52;10;9;
70436;PMS5003;57877;39.750;-104.894;2023-05-10T11:32:19;10;9;
70436;PMS5003;57877;39.750;-104.894;2023-05-10T11:34:46;16;15;
70436;PMS5003;57877;39.750;-104.894;2023-05-10T11:37:10;13;12;
70436;PMS5003;57877;39.750;-104.894;2023-05-10T11:39:36;10;10;
70436;PMS5003;57877;39.750;-104.894;2023-05-10T11:42:02;12;12;
70436;PMS5003;57877;39.750;-104.894;2023-05-10T11:44:29;10;8;
70436;PMS5003;57877;39.750;-104.894;2023-05-10T11:46:54;15;12;
70436;PMS5003;57877;39.750;-104.894;2023-05-10T11:49:20;11;10;
70436;PMS5003;57877;39.750;-104.894;2023-05-10T11:51:46;11;10;
70436;PMS5003;57877;39.750;-104.894;2023-05-10T11:54:11;15;14;
70436;PMS5003;57877;39.750;-104.894;2023-05-10T11:56:37;13;13;
70436;PMS5003;57877;39.750;-104.894;2023-05-10T11:59:03;15;14;
70436;PMS5003;57877;39.750;-104.894;2023-05-10T12:01:30;17;17;
70436;PMS5003;57877;39.750;-104.894;2023-05-10T12:03:56;18;18;
70436;PMS5003;57877;39.750;-104.894;2023-05-10T12:06:22;16;15;
70436;PMS5003;57877;39.750;-104.894;2023-05-10T12:08:47;18;18;
70436;PMS5003;57877;39.750;-104.894;2023-05-10T12:11:13;16;16;
70436;PMS5003;57877;39.750;-104.894;2023-05-10T12:13:39;16;14;
70436;PMS5003;57877;39.750;-104.894;2023-05-10T12:18:31;19;18;
70436;PMS5003;57877;39.750;-104.894;2023-05-10T12:21:02;20;20;
70436;PMS5003;57877;39.750;-104.894;2023-05-10T12:23:23;21;21;
70436;PMS5003;57877;39.750;-104.894;2023-05-10T12:25:49;17;17;
70436;PMS5003;57877;39.750;-104.894;2023-05-10T12:28:15;20;20;
70436;PMS5003;57877;39.750;-104.894;2023-05-10T12:30:41;16;16;
70436;PMS5003;57877;39.750;-104.894;2023-05-10T12:33:08;22;22;
70436;PMS5003;57877;39.750;-104.894;2023-05-10T12:35:31;20;19;
70436;PMS5003;57877;39.750;-104.894;2023-05-10T12:37:57;19;18;
70436;PMS5003;57877;39.750;-104.894;2023-05-10T12:40:23;20;20;
70436;PMS5003;57877;39.750;-104.894;2023-05-10T12:42:49;23;21;
70436;PMS5003;57877;39.750;-104.894;2023-05-10T12:45:16;24;22;
70436;PMS5003;57877;39.750;-104.894;2023-05-10T12:47:41;24;22;
70436;PMS5003;57877;39.750;-104.894;2023-05-10T12:50:07;22;22;
70436;PMS5003;57877;39.750;-104.894;2023-05-10T12:52:33;26;25;
70436;PMS5003;57877;39.750;-104.894;2023-05-10T12:54:59;20;19;
70436;PMS5003;57877;39.750;-104.894;2023-05-10T12:57:25;22;21;
70436;PMS5003;57877;39.750;-104.894;2023-05-10T12:59:51;21;20;
70436;PMS5003;57877;39.750;-104.894;2023-05-10T13:02:17;20;19;
70436;PMS5003;57877;39.750;-104.894;2023-05-10T13:04:43;19;18;
70436;PMS5003;57877;39.750;-104.894;2023-05-10T13:07:08;21;20;
70436;PMS5003;57877;39.750;-104.894;2023-05-10T13:09:34;23;21;
70436;PMS5003;57877;39.750;-104.894;2023-05-10T13:12:00;22;21;
70436;PMS5003;57877;39.750;-104.894;2023-05-10T13:14:26;22;21;
70436;PMS5003;57877;39.750;-104.894;2023-05-10T13:16:52;21;21;
70436;PMS5003;57877;39.750;-104.894;2023-05-10T13:19:18;23;21;
70436;PMS5003;57877;39.750;-104.894;2023-05-10T13:21:44;23;21;
70436;PMS5003;57877;39.750;-104.894;2023-05-10T13:24:09;20;20;
70436;PMS5003;57877;39.750;-104.894;2023-05-10T13:26:34;23;23;
70436;PMS5003;57877;39.750;-104.894;2023-05-10T13:29:00;22;22;
70436;PMS5003;57877;39.750;-104.894;2023-05-10T13:31:26;23;21;
70436;PMS5003;57877;39.750;-104.894;2023-05-10T13:33:52;23;22;
70436;PMS5003;57877;39.750;-104.894;2023-05-10T13:36:19;25;23;
70436;PMS5003;57877;39.750;-104.894;2023-05-10T13:38:44;22;22;
70436;PMS5003;57877;39.750;-104.894;2023-05-10T13:41:10;25;24;
70436;PMS5003;57877;39.750;-104.894;2023-05-10T13:43:36;22;22;
70436;PMS5003;57877;39.750;-104.894;2023-05-10T13:46:03;22;21;
70436;PMS5003;57877;39.750;-104.894;2023-05-10T13:48:28;22;22;
70436;PMS5003;57877;39.750;-104.894;2023-05-10T13:50:53;24;22;
70436;PMS5003;57877;39.750;-104.894;2023-05-10T13:53:19;21;21;
70436;PMS5003;57877;39.750;-104.894;2023-05-10T13:55:44;26;25;
70436;PMS5003;57877;39.750;-104.894;2023-05-10T13:58:10;26;25;
70436;PMS5003;57877;39.750;-104.894;2023-05-10T14:00:36;23;22;
70436;PMS5003;57877;39.750;-104.894;2023-05-10T14:03:02;26;24;
70436;PMS5003;57877;39.750;-104.894;2023-05-10T14:05:28;25;24;
70436;PMS5003;57877;39.750;-104.894;2023-05-10T14:07:54;25;25;
70436;PMS5003;57877;39.750;-104.894;2023-05-10T14:10:20;25;23;
70436;PMS5003;57877;39.750;-104.894;2023-05-10T14:12:46;21;21;
70436;PMS5003;57877;39.750;-104.894;2023-05-10T14:15:12;23;21;
70436;PMS5003;57877;39.750;-104.894;2023-05-10T14:17:38;23;22;
70436;PMS5003;57877;39.750;-104.894;2023-05-10T14:20:04;21;21;
70436;PMS5003;57877;39.750;-104.894;2023-05-10T14:22:30;21;21;
70436;PMS5003;57877;39.750;-104.894;2023-05-10T14:24:56;21;20;
70436;PMS5003;57877;39.750;-104.894;2023-05-10T14:27:22;22;22;
70436;PMS5003;57877;39.750;-104.894;2023-05-10T14:29:48;21;21;
70436;PMS5003;57877;39.750;-104.894;2023-05-10T14:32:14;23;22;
70436;PMS5003;57877;39.750;-104.894;2023-05-10T14:34:40;19;19;
70436;PMS5003;57877;39.750;-104.894;2023-05-10T14:37:06;20;20;
70436;PMS5003;57877;39.750;-104.894;2023-05-10T14:39:32;17;17;
70436;PMS5003;57877;39.750;-104.894;2023-05-10T14:41:57;17;17;
70436;PMS5003;57877;39.750;-104.894;2023-05-10T14:44:22;17;17;
70436;PMS5003;57877;39.750;-104.894;2023-05-10T14:46:48;17;17;
70436;PMS5003;57877;39.750;-104.894;2023-05-10T14:49:14;19;19;
70436;PMS5003;57877;39.750;-104.894;2023-05-10T14:51:40;17;17;
70436;PMS5003;57877;39.750;-104.894;2023-05-10T14:54:06;16;14;
70436;PMS5003;57877;39.750;-104.894;2023-05-10T14:56:32;17;17;
70436;PMS5003;57877;39.750;-104.894;2023-05-10T14:58:58;18;15;
70436;PMS5003;57877;39.750;-104.894;2023-05-10T15:01:24;16;16;
70436;PMS5003;57877;39.750;-104.894;2023-05-10T15:03:50;19;18;
70436;PMS5003;57877;39.750;-104.894;2023-05-10T15:06:15;18;17;
70436;PMS5003;57877;39.750;-104.894;2023-05-10T15:08:41;15;14;
70436;PMS5003;57877;39.750;-104.894;2023-05-10T15:11:07;17;16;
70436;PMS5003;57877;39.750;-104.894;2023-05-10T15:13:32;17;15;
70436;PMS5003;57877;39.750;-104.894;2023-05-10T15:15:57;17;16;
70436;PMS5003;57877;39.750;-104.894;2023-05-10T15:18:22;18;18;
70436;PMS5003;57877;39.750;-104.894;2023-05-10T15:20:48;16;15;
70436;PMS5003;57877;39.750;-104.894;2023-05-10T15:23:13;17;16;
70436;PMS5003;57877;39.750;-104.894;2023-05-10T15:25:39;18;18;
70436;PMS5003;57877;39.750;-104.894;2023-05-10T15:28:05;18;18;
70436;PMS5003;57877;39.750;-104.894;2023-05-10T15:30:30;19;18;
70436;PMS5003;57877;39.750;-104.894;2023-05-10T15:32:55;19;18;
70436;PMS5003;57877;39.750;-104.894;2023-05-10T15:35:20;18;18;
70436;PMS5003;57877;39.750;-104.894;2023-05-10T15:37:47;19;18;
70436;PMS5003;57877;39.750;-104.894;2023-05-10T15:40:11;19;19;
70436;PMS5003;57877;39.750;-104.894;2023-05-10T15:42:36;21;19;
70436;PMS5003;57877;39.750;-104.894;2023-05-10T15:45:01;21;21;
70436;PMS5003;57877;39.750;-104.894;2023-05-10T15:47:26;20;19;
70436;PMS5003;57877;39.750;-104.894;2023-05-10T15:49:51;23;21;
70436;PMS5003;57877;39.750;-104.894;2023-05-10T15:52:16;21;21;
70436;PMS5003;57877;39.750;-104.894;2023-05-10T15:54:41;22;21;
70436;PMS5003;57877;39.750;-104.894;2023-05-10T15:57:06;24;23;
70436;PMS5003;57877;39.750;-104.894;2023-05-10T15:59:31;21;20;
70436;PMS5003;57877;39.750;-104.894;2023-05-10T16:01:56;22;21;
70436;PMS5003;57877;39.750;-104.894;2023-05-10T16:04:21;21;21;